TimeEDT,TemperatureF,Dew PointF,Humidity,Sea Level PressureIn,VisibilityMPH,Wind Direction,Wind SpeedMPH,Gust SpeedMPH,PrecipitationIn,Events,Conditions,WindDirDegrees,DateUTC
12:53 AM,66.9,64.9,93,30.08,10.0,Calm,Calm,-,N/A,,Clear,0,2013-05-11 04:53:00
1:53 AM,68.0,66.0,93,30.07,9.0,Calm,Calm,-,N/A,,Mostly Cloudy,0,2013-05-11 05:53:00
2:46 AM,66.2,64.4,94,30.07,10.0,Calm,Calm,-,N/A,,Scattered Clouds,0,2013-05-11 06:46:00
2:53 AM,68.0,66.0,93,30.06,10.0,Calm,Calm,-,N/A,,Mostly Cloudy,0,2013-05-11 06:53:00
3:53 AM,66.0,64.0,93,30.03,9.0,Calm,Calm,-,N/A,,Clear,0,2013-05-11 07:53:00
4:53 AM,64.9,64.0,97,30.02,10.0,Calm,Calm,-,N/A,,Clear,0,2013-05-11 08:53:00
5:53 AM,66.0,64.0,93,30.03,7.0,Calm,Calm,-,N/A,,Clear,0,2013-05-11 09:53:00
6:53 AM,66.0,64.9,96,30.04,6.0,Calm,Calm,-,N/A,,Clear,0,2013-05-11 10:53:00
7:53 AM,69.1,66.9,93,30.05,9.0,South,3.5,-,N/A,,Clear,170,2013-05-11 11:53:00
8:53 AM,75.0,71.1,87,30.05,10.0,SSE,4.6,-,N/A,,Clear,160,2013-05-11 12:53:00
9:04 AM,77.0,71.6,83,30.06,10.0,South,6.9,-,N/A,,Partly Cloudy,180,2013-05-11 13:04:00
9:49 AM,80.6,71.6,74,30.07,10.0,South,8.1,-,N/A,,Mostly Cloudy,170,2013-05-11 13:49:00
9:53 AM,80.1,71.1,74,30.07,10.0,South,10.4,-,N/A,,Mostly Cloudy,190,2013-05-11 13:53:00
10:30 AM,80.6,69.8,70,30.07,10.0,South,8.1,-,N/A,,Mostly Cloudy,180,2013-05-11 14:30:00
10:37 AM,80.6,71.6,74,30.08,10.0,SW,8.1,-,N/A,,Mostly Cloudy,220,2013-05-11 14:37:00
10:44 AM,80.6,71.6,74,30.07,10.0,SSW,4.6,-,N/A,,Mostly Cloudy,200,2013-05-11 14:44:00
10:53 AM,82.0,70.0,67,30.06,10.0,SSW,10.4,-,N/A,,Mostly Cloudy,200,2013-05-11 14:53:00
11:13 AM,82.4,69.8,66,30.06,10.0,South,8.1,-,N/A,,Mostly Cloudy,190,2013-05-11 15:13:00
11:27 AM,84.2,69.8,62,30.06,10.0,SW,8.1,-,N/A,,Mostly Cloudy,230,2013-05-11 15:27:00
11:53 AM,84.0,69.1,61,30.05,10.0,SW,9.2,-,N/A,,Scattered Clouds,230,2013-05-11 15:53:00
12:53 PM,87.1,69.1,55,30.04,10.0,WSW,12.7,-,N/A,,Scattered Clouds,250,2013-05-11 16:53:00
1:53 PM,88.0,70.0,55,30.04,10.0,WSW,16.1,21.9,N/A,,Partly Cloudy,250,2013-05-11 17:53:00
2:53 PM,87.1,70.0,57,30.02,10.0,West,15.0,21.9,N/A,,Scattered Clouds,260,2013-05-11 18:53:00
3:53 PM,84.9,68.0,57,30.02,10.0,West,17.3,-,N/A,,Scattered Clouds,270,2013-05-11 19:53:00
4:53 PM,82.9,68.0,60,30.02,10.0,West,12.7,-,N/A,,Clear,260,2013-05-11 20:53:00
5:53 PM,81.0,71.1,72,30.04,10.0,West,15.0,-,N/A,,Clear,270,2013-05-11 21:53:00
6:27 PM,78.8,71.6,78,30.04,10.0,West,12.7,20.7,N/A,,Mostly Cloudy,280,2013-05-11 22:27:00
6:38 PM,78.8,71.6,78,30.04,1.2,WNW,13.8,25.3,0.13,Rain,Heavy Rain,300,2013-05-11 22:38:00
6:46 PM,69.8,66.2,88,30.04,0.5,NNW,25.3,36.8,0.28,Fog-Rain,Light Rain,330,2013-05-11 22:46:00
6:50 PM,69.8,66.2,88,30.05,1.8,NNW,15.0,36.8,0.31,Rain,Rain,340,2013-05-11 22:50:00
6:53 PM,70.0,66.9,90,30.06,3.0,NNW,11.5,34.5,0.33,Rain,Rain,330,2013-05-11 22:53:00
7:33 PM,69.8,68.0,94,30.04,10.0,NNE,5.8,-,0.02,,Scattered Clouds,20,2013-05-11 23:33:00
7:53 PM,70.0,68.0,93,30.04,10.0,NNE,3.5,-,0.02,,Clear,30,2013-05-11 23:53:00
8:53 PM,69.1,68.0,96,30.03,10.0,South,4.6,-,N/A,,Clear,170,2013-05-12 00:53:00
9:53 PM,69.1,68.0,96,30.04,10.0,Calm,Calm,-,N/A,,Clear,0,2013-05-12 01:53:00
10:53 PM,68.0,66.9,96,30.04,10.0,South,3.5,-,0.01,,Clear,180,2013-05-12 02:53:00
11:53 PM,68.0,66.0,93,30.04,10.0,South,3.5,-,N/A,,Clear,190,2013-05-12 03:53:00